Aominesanmaru No.58 — JI3551 — position and weather

sailwx.info

Track history (hours):
 
Tides and Currents Weather Stations Pressure Air Temp Water Temp Dewpoint Dewpoint Depression Visibility Wind Speed Wind Dir Waves Ship Positions

Aominesanmaru No.58

Last reported at 2018-Feb-21 03:28 UTC. Time now 2018-Feb-21 09:29 UTC.
Position N 35°31' E 139°45'.

Length 59 m.

Type: Ship (hazmat cat A). MMSI: 431006719.

Date/timePositionNaut miles runAvg speedWind from/ knotsBaromVisibWave heightAir tempDewpointWater temp
2018-Feb-21 03:28N 35°31' E 139°45'3 7.2
2018-Feb-21 03:00N 35°28' E 139°42'5 9.4
2018-Feb-21 02:30N 35°24' E 139°42'3 5.6
2018-Feb-21 01:59N 35°24' E 139°38'0 0.0
2018-Feb-21 01:29N 35°24' E 139°38'0 0.0
2018-Feb-21 00:59N 35°24' E 139°38'0 0.0
2018-Feb-21 00:23N 35°24' E 139°38'0 0.0
2018-Feb-20 23:59N 35°24' E 139°38'0 0.0
2018-Feb-20 23:29N 35°24' E 139°38'1 1.1
2018-Feb-20 23:00N 35°24' E 139°39'3 6.2
2018-Feb-20 22:30N 35°24' E 139°43'510.9
2018-Feb-20 22:00N 35°29' E 139°46'2 3.9
2018-Feb-20 21:22N 35°31' E 139°45'0 0.0
2018-Feb-20 03:36N 35°31' E 139°45'0 0.2
2018-Feb-20 03:28N 35°31' E 139°45'3 7.3
2018-Feb-20 03:00N 35°28' E 139°42'510.3
2018-Feb-20 02:30N 35°23' E 139°41'1 1.9
2018-Feb-20 01:56N 35°24' E 139°40'0 0.0
2018-Feb-20 01:20N 35°24' E 139°40'0 0.0
2018-Feb-20 00:59N 35°24' E 139°40'0 0.0
2018-Feb-20 00:29N 35°24' E 139°40'0 0.0
2018-Feb-20 00:00N 35°24' E 139°40'0 0.1
2018-Feb-19 23:30N 35°24' E 139°40'2 4.5
2018-Feb-19 23:00N 35°25' E 139°42'5 9.0
2018-Feb-19 22:30N 35°30' E 139°44'1 0.1
2018-Feb-19 02:41N 35°31' E 139°45'0 0.8
2018-Feb-19 02:30N 35°31' E 139°45'12 2.6
2018-Feb-18 21:55N 35°30' E 139°60'4 8.9
2018-Feb-18 21:30N 35°30' E 139°55'510.3
2018-Feb-18 20:58N 35°30' E 139°48'3 5.6
2018-Feb-18 20:24N 35°31' E 139°45'  
2018-Feb-16 11:58N 35°31' E 139°45'3 5.5
2018-Feb-16 11:30N 35°29' E 139°43'2 3.5
2018-Feb-16 11:00N 35°28' E 139°41'0 0.0
2018-Feb-16 10:26N 35°28' E 139°41'0 0.0
2018-Feb-16 09:59N 35°28' E 139°41'0 0.0
2018-Feb-16 09:29N 35°28' E 139°41'0 0.0
2018-Feb-16 08:59N 35°28' E 139°41'0 0.0
2018-Feb-16 08:30N 35°28' E 139°41'0 0.0
2018-Feb-16 07:53N 35°28' E 139°41'1 2.5
2018-Feb-16 07:30N 35°27' E 139°42'4 8.3
2018-Feb-16 07:00N 35°24' E 139°40'2 3.3
2018-Feb-16 06:30N 35°25' E 139°38'0 0.0
2018-Feb-16 06:00N 35°25' E 139°38'0 0.0
2018-Feb-16 05:27N 35°25' E 139°38'0 0.0
2018-Feb-16 04:51N 35°25' E 139°38'0 0.0
2018-Feb-16 04:30N 35°25' E 139°38'0 0.5
2018-Feb-16 04:00N 35°25' E 139°38'3 5.6
2018-Feb-16 03:29N 35°24' E 139°42'612.0
2018-Feb-16 03:00N 35°29' E 139°47'6 1.4
2018-Feb-15 22:42N 35°35' E 139°48'3 9.0
2018-Feb-15 22:20N 35°32' E 139°50'3 8.7
2018-Feb-15 21:58N 35°30' E 139°46'1 0.1
2018-Feb-15 09:22N 35°31' E 139°45'2 6.7
2018-Feb-15 09:00N 35°30' E 139°48'811.2
2018-Feb-15 08:18N 35°30' E 139°57'3 1.3
2018-Feb-15 05:35N 35°31' E 140°02'111.2
2018-Feb-15 05:27N 35°30' E 139°60'511.5
2018-Feb-15 05:00N 35°29' E 139°54'611.1
2018-Feb-15 04:30N 35°28' E 139°47'510.0
2018-Feb-15 04:00N 35°27' E 139°41'0 0.1
2018-Feb-15 03:29N 35°27' E 139°41'0 0.0
2018-Feb-15 02:59N 35°27' E 139°41'0 0.0
2018-Feb-15 02:29N 35°27' E 139°41'0 0.0
2018-Feb-15 01:59N 35°27' E 139°41'0 0.0
2018-Feb-15 01:26N 35°27' E 139°41'0 0.0
2018-Feb-15 00:59N 35°27' E 139°41'0 0.0
2018-Feb-15 00:29N 35°27' E 139°41'0 0.0
2018-Feb-14 23:59N 35°27' E 139°41'0 0.0
2018-Feb-14 23:29N 35°27' E 139°41'0 0.0
2018-Feb-14 22:56N 35°27' E 139°41'2 4.8
2018-Feb-14 22:30N 35°27' E 139°44'3 6.8
2018-Feb-14 22:00N 35°30' E 139°46'1 1.8
2018-Feb-14 21:25N 35°31' E 139°45'0 0.0
2018-Feb-14 20:55N 35°31' E 139°45'0 0.0
2018-Feb-14 20:25N 35°31' E 139°45'0 0.0
2018-Feb-14 19:55N 35°31' E 139°45'0 0.0
2018-Feb-14 19:28N 35°31' E 139°45'0 0.0
2018-Feb-14 18:55N 35°31' E 139°45'0 0.0
2018-Feb-14 18:25N 35°31' E 139°45'0 0.0
2018-Feb-14 17:49N 35°31' E 139°45'0 0.0
2018-Feb-14 17:25N 35°31' E 139°45'0 0.0
2018-Feb-14 16:58N 35°31' E 139°45'0 0.0
2018-Feb-14 16:19N 35°31' E 139°45'0 0.0
2018-Feb-14 15:55N 35°31' E 139°45'0 0.0
2018-Feb-14 15:25N 35°31' E 139°45'0 0.0
2018-Feb-14 14:55N 35°31' E 139°45'0 0.0
2018-Feb-14 14:07N 35°31' E 139°45'0 0.0
2018-Feb-14 13:55N 35°31' E 139°45'0 0.0
2018-Feb-14 13:28N 35°31' E 139°45'0 0.0
2018-Feb-14 12:58N 35°31' E 139°45'0 0.0
2018-Feb-14 12:26N 35°31' E 139°45'0 0.0
2018-Feb-14 11:43N 35°31' E 139°45'0 0.0
2018-Feb-14 11:01N 35°31' E 139°45'0 0.1
2018-Feb-14 10:55N 35°31' E 139°45'0 0.0
2018-Feb-14 10:19N 35°31' E 139°45'0 0.0
2018-Feb-14 09:50N 35°31' E 139°45'0 0.2
2018-Feb-14 09:20N 35°31' E 139°45'2 6.9
2018-Feb-14 09:00N 35°29' E 139°43'4 8.0
2018-Feb-14 08:30N 35°25' E 139°42'3 6.7
2018-Feb-14 08:00N 35°25' E 139°38'0 0.3
2018-Feb-14 07:29N 35°24' E 139°38'0 0.0
2018-Feb-14 06:59N 35°24' E 139°38'0 0.0
2018-Feb-14 06:26N 35°24' E 139°38'0 0.0
2018-Feb-14 05:59N 35°24' E 139°38'3 5.8
2018-Feb-14 05:30N 35°24' E 139°41'510.1
2018-Feb-14 05:00N 35°27' E 139°46'10 3.9
2018-Feb-14 02:22N 35°31' E 139°58'0 0.1
2018-Feb-14 01:55N 35°32' E 139°58'3 1.3
2018-Feb-13 23:17N 35°31' E 140°02'1 4.9
2018-Feb-13 22:59N 35°30' E 139°60'711.3
2018-Feb-13 22:22N 35°30' E 139°51'411.2
2018-Feb-13 22:01N 35°30' E 139°46'2 0.2
2018-Feb-13 14:50N 35°31' E 139°45'0 0.0
2018-Feb-13 07:47N 35°31' E 139°45'2 7.2
2018-Feb-13 07:28N 35°30' E 139°47'3 5.1
2018-Feb-13 06:58N 35°29' E 139°44'0 0.0
2018-Feb-13 05:31N 35°29' E 139°44'0 0.0
2018-Feb-13 05:19N 35°29' E 139°44'0 0.0
2018-Feb-13 04:49N 35°29' E 139°44'0 0.0
2018-Feb-13 04:22N 35°29' E 139°44'0 0.0
2018-Feb-13 03:40N 35°29' E 139°44'0 2.7
2018-Feb-13 03:30N 35°29' E 139°45'510.6
2018-Feb-13 03:00N 35°24' E 139°42'3 5.1
2018-Feb-13 02:26N 35°25' E 139°38'0 0.0
2018-Feb-13 01:59N 35°25' E 139°38'0 0.0
2018-Feb-13 01:26N 35°25' E 139°38'0 0.0
2018-Feb-13 00:56N 35°25' E 139°38'0 0.0
2018-Feb-13 00:29N 35°25' E 139°38'0 0.0
2018-Feb-12 23:56N 35°25' E 139°38'0 0.0
2018-Feb-12 23:29N 35°25' E 139°38'0 0.8
2018-Feb-12 23:00N 35°24' E 139°39'3 5.8
2018-Feb-12 22:29N 35°24' E 139°42'611.5
2018-Feb-12 22:00N 35°28' E 139°46'3 5.0
2018-Feb-12 21:27N 35°31' E 139°45'0 0.0
2018-Feb-12 20:57N 35°31' E 139°45'0 0.0
2018-Feb-12 20:27N 35°31' E 139°45'0 0.0
2018-Feb-12 19:57N 35°31' E 139°45'0 0.0
2018-Feb-12 19:27N 35°31' E 139°45'0 0.0
2018-Feb-12 18:57N 35°31' E 139°45'0 0.0
2018-Feb-12 18:21N 35°31' E 139°45'0 0.0
2018-Feb-12 17:57N 35°31' E 139°45'0 0.0
2018-Feb-12 17:21N 35°31' E 139°45'0 0.0
2018-Feb-12 16:57N 35°31' E 139°45'0 0.0
2018-Feb-12 16:27N 35°31' E 139°45'0 0.0
2018-Feb-12 15:39N 35°31' E 139°45'0 0.0
2018-Feb-12 15:09N 35°31' E 139°45'0 0.0
2018-Feb-12 14:51N 35°31' E 139°45'0 0.0
2018-Feb-12 14:03N 35°31' E 139°45'0 0.0
2018-Feb-12 13:51N 35°31' E 139°45'0 0.0
2018-Feb-12 13:15N 35°31' E 139°45'0 0.0
2018-Feb-12 12:57N 35°31' E 139°45'0 0.0
2018-Feb-12 12:15N 35°31' E 139°45'0 0.0
2018-Feb-12 11:57N 35°31' E 139°45'0 0.0
2018-Feb-12 11:27N 35°31' E 139°45'0 0.0
2018-Feb-12 10:15N 35°31' E 139°45'0 0.0
2018-Feb-12 09:57N 35°31' E 139°45'0 0.0
2018-Feb-12 09:21N 35°31' E 139°45'0 0.0
2018-Feb-12 08:57N 35°31' E 139°45'0 0.0
2018-Feb-12 08:03N 35°31' E 139°45'0 0.0
2018-Feb-12 07:51N 35°31' E 139°45'0 0.0
2018-Feb-12 07:15N 35°31' E 139°45'0 0.0
2018-Feb-12 06:39N 35°31' E 139°45'0 0.0
2018-Feb-12 06:09N 35°31' E 139°45'0 0.0
2018-Feb-12 03:57N 35°31' E 139°45'0 0.1
2018-Feb-12 03:29N 35°31' E 139°45'4 7.4
2018-Feb-12 02:59N 35°28' E 139°48'510.4
2018-Feb-12 02:30N 35°24' E 139°49'3 5.1
2018-Feb-12 01:58N 35°22' E 139°52'0 0.0
2018-Feb-12 01:28N 35°22' E 139°52'0 0.0
2018-Feb-12 00:58N 35°22' E 139°52'0 0.0
2018-Feb-12 00:28N 35°22' E 139°52'0 0.0
2018-Feb-11 23:49N 35°22' E 139°52'0 0.0
2018-Feb-11 23:28N 35°22' E 139°52'0 0.0
2018-Feb-11 22:53N 35°22' E 139°52'3 7.7
2018-Feb-11 22:30N 35°25' E 139°50'710.3
2018-Feb-11 21:52N 35°30' E 139°46'2 3.3
2018-Feb-11 21:23N 35°31' E 139°45'0 0.0
2018-Feb-11 20:47N 35°31' E 139°45'0 0.0
2018-Feb-11 20:29N 35°31' E 139°45'0 0.0
2018-Feb-11 19:53N 35°31' E 139°45'0 0.0
2018-Feb-11 19:29N 35°31' E 139°45'0 0.0
2018-Feb-11 18:59N 35°31' E 139°45'0 0.0
2018-Feb-11 17:29N 35°31' E 139°45'0 0.0
2018-Feb-11 16:47N 35°31' E 139°45'0 0.0
2018-Feb-11 16:23N 35°31' E 139°45'0 0.0
2018-Feb-11 15:59N 35°31' E 139°45'0 0.0
2018-Feb-11 15:29N 35°31' E 139°45'0 0.0
2018-Feb-11 14:53N 35°31' E 139°45'0 0.0
2018-Feb-11 14:29N 35°31' E 139°45'0 0.0
2018-Feb-11 13:59N 35°31' E 139°45'0 0.0
2018-Feb-11 13:29N 35°31' E 139°45'0 0.0
2018-Feb-11 12:59N 35°31' E 139°45'0 0.0
2018-Feb-11 12:29N 35°31' E 139°45'0 0.0
2018-Feb-11 11:29N 35°31' E 139°45'0 0.0
2018-Feb-11 10:47N 35°31' E 139°45'0 0.0
2018-Feb-11 10:23N 35°31' E 139°45'0 0.0
2018-Feb-11 09:59N 35°31' E 139°45'0 0.0
2018-Feb-11 09:23N 35°31' E 139°45'0 0.0
2018-Feb-11 08:59N 35°31' E 139°45'0 0.0
2018-Feb-11 08:29N 35°31' E 139°45'2 4.3
2018-Feb-11 08:00N 35°29' E 139°43'4 8.7
2018-Feb-11 07:30N 35°25' E 139°42'3 6.4
2018-Feb-11 07:00N 35°24' E 139°38'0 0.1
2018-Feb-11 06:28N 35°24' E 139°38'0 0.0
2018-Feb-11 05:56N 35°24' E 139°38'0 0.0
2018-Feb-11 05:28N 35°24' E 139°38'0 0.0
2018-Feb-11 04:55N 35°24' E 139°38'0 0.0
2018-Feb-11 04:25N 35°24' E 139°38'2 5.0
2018-Feb-11 03:59N 35°24' E 139°41'510.8
2018-Feb-11 03:30N 35°28' E 139°45'  
Track history (hours):
 
Tides and Currents Weather Stations Pressure Air Temp Water Temp Dewpoint Dewpoint Depression Visibility Wind Speed Wind Dir Waves Ship Positions

Aominesanmaru No.58

Last reported at 2018-Feb-21 03:28 UTC. Time now 2018-Feb-21 09:29 UTC.
Position N 35°31' E 139°45'.

Length 59 m.

Type: Ship (hazmat cat A). MMSI: 431006719.

Date/timePositionNaut miles runAvg speedWind from/ knotsBaromVisibWave heightAir tempDewpointWater temp
2018-Feb-21 03:28N 35°31' E 139°45'3 7.2
2018-Feb-21 03:00N 35°28' E 139°42'5 9.4
2018-Feb-21 02:30N 35°24' E 139°42'3 5.6
2018-Feb-21 01:59N 35°24' E 139°38'0 0.0
2018-Feb-21 01:29N 35°24' E 139°38'0 0.0
2018-Feb-21 00:59N 35°24' E 139°38'0 0.0
2018-Feb-21 00:23N 35°24' E 139°38'0 0.0
2018-Feb-20 23:59N 35°24' E 139°38'0 0.0
2018-Feb-20 23:29N 35°24' E 139°38'1 1.1
2018-Feb-20 23:00N 35°24' E 139°39'3 6.2
2018-Feb-20 22:30N 35°24' E 139°43'510.9
2018-Feb-20 22:00N 35°29' E 139°46'2 3.9
2018-Feb-20 21:22N 35°31' E 139°45'0 0.0
2018-Feb-20 03:36N 35°31' E 139°45'0 0.2
2018-Feb-20 03:28N 35°31' E 139°45'3 7.3
2018-Feb-20 03:00N 35°28' E 139°42'510.3
2018-Feb-20 02:30N 35°23' E 139°41'1 1.9
2018-Feb-20 01:56N 35°24' E 139°40'0 0.0
2018-Feb-20 01:20N 35°24' E 139°40'0 0.0
2018-Feb-20 00:59N 35°24' E 139°40'0 0.0
2018-Feb-20 00:29N 35°24' E 139°40'0 0.0
2018-Feb-20 00:00N 35°24' E 139°40'0 0.1
2018-Feb-19 23:30N 35°24' E 139°40'2 4.5
2018-Feb-19 23:00N 35°25' E 139°42'5 9.0
2018-Feb-19 22:30N 35°30' E 139°44'1 0.1
2018-Feb-19 02:41N 35°31' E 139°45'0 0.8
2018-Feb-19 02:30N 35°31' E 139°45'12 2.6
2018-Feb-18 21:55N 35°30' E 139°60'4 8.9
2018-Feb-18 21:30N 35°30' E 139°55'510.3
2018-Feb-18 20:58N 35°30' E 139°48'3 5.6
2018-Feb-18 20:24N 35°31' E 139°45'  
2018-Feb-16 11:58N 35°31' E 139°45'3 5.5
2018-Feb-16 11:30N 35°29' E 139°43'2 3.5
2018-Feb-16 11:00N 35°28' E 139°41'0 0.0
2018-Feb-16 10:26N 35°28' E 139°41'0 0.0
2018-Feb-16 09:59N 35°28' E 139°41'0 0.0
2018-Feb-16 09:29N 35°28' E 139°41'0 0.0
2018-Feb-16 08:59N 35°28' E 139°41'0 0.0
2018-Feb-16 08:30N 35°28' E 139°41'0 0.0
2018-Feb-16 07:53N 35°28' E 139°41'1 2.5
2018-Feb-16 07:30N 35°27' E 139°42'4 8.3
2018-Feb-16 07:00N 35°24' E 139°40'2 3.3
2018-Feb-16 06:30N 35°25' E 139°38'0 0.0
2018-Feb-16 06:00N 35°25' E 139°38'0 0.0
2018-Feb-16 05:27N 35°25' E 139°38'0 0.0
2018-Feb-16 04:51N 35°25' E 139°38'0 0.0
2018-Feb-16 04:30N 35°25' E 139°38'0 0.5
2018-Feb-16 04:00N 35°25' E 139°38'3 5.6
2018-Feb-16 03:29N 35°24' E 139°42'612.0
2018-Feb-16 03:00N 35°29' E 139°47'6 1.4
2018-Feb-15 22:42N 35°35' E 139°48'3 9.0
2018-Feb-15 22:20N 35°32' E 139°50'3 8.7
2018-Feb-15 21:58N 35°30' E 139°46'1 0.1
2018-Feb-15 09:22N 35°31' E 139°45'2 6.7
2018-Feb-15 09:00N 35°30' E 139°48'811.2
2018-Feb-15 08:18N 35°30' E 139°57'3 1.3
2018-Feb-15 05:35N 35°31' E 140°02'111.2
2018-Feb-15 05:27N 35°30' E 139°60'511.5
2018-Feb-15 05:00N 35°29' E 139°54'611.1
2018-Feb-15 04:30N 35°28' E 139°47'510.0
2018-Feb-15 04:00N 35°27' E 139°41'0 0.1
2018-Feb-15 03:29N 35°27' E 139°41'0 0.0
2018-Feb-15 02:59N 35°27' E 139°41'0 0.0
2018-Feb-15 02:29N 35°27' E 139°41'0 0.0
2018-Feb-15 01:59N 35°27' E 139°41'0 0.0
2018-Feb-15 01:26N 35°27' E 139°41'0 0.0
2018-Feb-15 00:59N 35°27' E 139°41'0 0.0
2018-Feb-15 00:29N 35°27' E 139°41'0 0.0
2018-Feb-14 23:59N 35°27' E 139°41'0 0.0
2018-Feb-14 23:29N 35°27' E 139°41'0 0.0
2018-Feb-14 22:56N 35°27' E 139°41'2 4.8
2018-Feb-14 22:30N 35°27' E 139°44'3 6.8
2018-Feb-14 22:00N 35°30' E 139°46'1 1.8
2018-Feb-14 21:25N 35°31' E 139°45'0 0.0
2018-Feb-14 20:55N 35°31' E 139°45'0 0.0
2018-Feb-14 20:25N 35°31' E 139°45'0 0.0
2018-Feb-14 19:55N 35°31' E 139°45'0 0.0
2018-Feb-14 19:28N 35°31' E 139°45'0 0.0
2018-Feb-14 18:55N 35°31' E 139°45'0 0.0
2018-Feb-14 18:25N 35°31' E 139°45'0 0.0
2018-Feb-14 17:49N 35°31' E 139°45'0 0.0
2018-Feb-14 17:25N 35°31' E 139°45'0 0.0
2018-Feb-14 16:58N 35°31' E 139°45'0 0.0
2018-Feb-14 16:19N 35°31' E 139°45'0 0.0
2018-Feb-14 15:55N 35°31' E 139°45'0 0.0
2018-Feb-14 15:25N 35°31' E 139°45'0 0.0
2018-Feb-14 14:55N 35°31' E 139°45'0 0.0
2018-Feb-14 14:07N 35°31' E 139°45'0 0.0
2018-Feb-14 13:55N 35°31' E 139°45'0 0.0
2018-Feb-14 13:28N 35°31' E 139°45'0 0.0
2018-Feb-14 12:58N 35°31' E 139°45'0 0.0
2018-Feb-14 12:26N 35°31' E 139°45'0 0.0
2018-Feb-14 11:43N 35°31' E 139°45'0 0.0
2018-Feb-14 11:01N 35°31' E 139°45'0 0.1
2018-Feb-14 10:55N 35°31' E 139°45'0 0.0
2018-Feb-14 10:19N 35°31' E 139°45'0 0.0
2018-Feb-14 09:50N 35°31' E 139°45'0 0.2
2018-Feb-14 09:20N 35°31' E 139°45'2 6.9
2018-Feb-14 09:00N 35°29' E 139°43'4 8.0
2018-Feb-14 08:30N 35°25' E 139°42'3 6.7
2018-Feb-14 08:00N 35°25' E 139°38'0 0.3
2018-Feb-14 07:29N 35°24' E 139°38'0 0.0
2018-Feb-14 06:59N 35°24' E 139°38'0 0.0
2018-Feb-14 06:26N 35°24' E 139°38'0 0.0
2018-Feb-14 05:59N 35°24' E 139°38'3 5.8
2018-Feb-14 05:30N 35°24' E 139°41'510.1
2018-Feb-14 05:00N 35°27' E 139°46'10 3.9
2018-Feb-14 02:22N 35°31' E 139°58'0 0.1
2018-Feb-14 01:55N 35°32' E 139°58'3 1.3
2018-Feb-13 23:17N 35°31' E 140°02'1 4.9
2018-Feb-13 22:59N 35°30' E 139°60'711.3
2018-Feb-13 22:22N 35°30' E 139°51'411.2
2018-Feb-13 22:01N 35°30' E 139°46'2 0.2
2018-Feb-13 14:50N 35°31' E 139°45'0 0.0
2018-Feb-13 07:47N 35°31' E 139°45'2 7.2
2018-Feb-13 07:28N 35°30' E 139°47'3 5.1
2018-Feb-13 06:58N 35°29' E 139°44'0 0.0
2018-Feb-13 05:31N 35°29' E 139°44'0 0.0
2018-Feb-13 05:19N 35°29' E 139°44'0 0.0
2018-Feb-13 04:49N 35°29' E 139°44'0 0.0
2018-Feb-13 04:22N 35°29' E 139°44'0 0.0
2018-Feb-13 03:40N 35°29' E 139°44'0 2.7
2018-Feb-13 03:30N 35°29' E 139°45'510.6
2018-Feb-13 03:00N 35°24' E 139°42'3 5.1
2018-Feb-13 02:26N 35°25' E 139°38'0 0.0
2018-Feb-13 01:59N 35°25' E 139°38'0 0.0
2018-Feb-13 01:26N 35°25' E 139°38'0 0.0
2018-Feb-13 00:56N 35°25' E 139°38'0 0.0
2018-Feb-13 00:29N 35°25' E 139°38'0 0.0
2018-Feb-12 23:56N 35°25' E 139°38'0 0.0
2018-Feb-12 23:29N 35°25' E 139°38'0 0.8
2018-Feb-12 23:00N 35°24' E 139°39'3 5.8
2018-Feb-12 22:29N 35°24' E 139°42'611.5
2018-Feb-12 22:00N 35°28' E 139°46'3 5.0
2018-Feb-12 21:27N 35°31' E 139°45'0 0.0
2018-Feb-12 20:57N 35°31' E 139°45'0 0.0
2018-Feb-12 20:27N 35°31' E 139°45'0 0.0
2018-Feb-12 19:57N 35°31' E 139°45'0 0.0
2018-Feb-12 19:27N 35°31' E 139°45'0 0.0
2018-Feb-12 18:57N 35°31' E 139°45'0 0.0
2018-Feb-12 18:21N 35°31' E 139°45'0 0.0
2018-Feb-12 17:57N 35°31' E 139°45'0 0.0
2018-Feb-12 17:21N 35°31' E 139°45'0 0.0
2018-Feb-12 16:57N 35°31' E 139°45'0 0.0
2018-Feb-12 16:27N 35°31' E 139°45'0 0.0
2018-Feb-12 15:39N 35°31' E 139°45'0 0.0
2018-Feb-12 15:09N 35°31' E 139°45'0 0.0
2018-Feb-12 14:51N 35°31' E 139°45'0 0.0
2018-Feb-12 14:03N 35°31' E 139°45'0 0.0
2018-Feb-12 13:51N 35°31' E 139°45'0 0.0
2018-Feb-12 13:15N 35°31' E 139°45'0 0.0
2018-Feb-12 12:57N 35°31' E 139°45'0 0.0
2018-Feb-12 12:15N 35°31' E 139°45'0 0.0
2018-Feb-12 11:57N 35°31' E 139°45'0 0.0
2018-Feb-12 11:27N 35°31' E 139°45'0 0.0
2018-Feb-12 10:15N 35°31' E 139°45'0 0.0
2018-Feb-12 09:57N 35°31' E 139°45'0 0.0
2018-Feb-12 09:21N 35°31' E 139°45'0 0.0
2018-Feb-12 08:57N 35°31' E 139°45'0 0.0
2018-Feb-12 08:03N 35°31' E 139°45'0 0.0
2018-Feb-12 07:51N 35°31' E 139°45'0 0.0
2018-Feb-12 07:15N 35°31' E 139°45'0 0.0
2018-Feb-12 06:39N 35°31' E 139°45'0 0.0
2018-Feb-12 06:09N 35°31' E 139°45'0 0.0
2018-Feb-12 03:57N 35°31' E 139°45'0 0.1
2018-Feb-12 03:29N 35°31' E 139°45'4 7.4
2018-Feb-12 02:59N 35°28' E 139°48'510.4
2018-Feb-12 02:30N 35°24' E 139°49'3 5.1
2018-Feb-12 01:58N 35°22' E 139°52'0 0.0
2018-Feb-12 01:28N 35°22' E 139°52'0 0.0
2018-Feb-12 00:58N 35°22' E 139°52'0 0.0
2018-Feb-12 00:28N 35°22' E 139°52'0 0.0
2018-Feb-11 23:49N 35°22' E 139°52'0 0.0
2018-Feb-11 23:28N 35°22' E 139°52'0 0.0
2018-Feb-11 22:53N 35°22' E 139°52'3 7.7
2018-Feb-11 22:30N 35°25' E 139°50'710.3
2018-Feb-11 21:52N 35°30' E 139°46'2 3.3
2018-Feb-11 21:23N 35°31' E 139°45'0 0.0
2018-Feb-11 20:47N 35°31' E 139°45'0 0.0
2018-Feb-11 20:29N 35°31' E 139°45'0 0.0
2018-Feb-11 19:53N 35°31' E 139°45'0 0.0
2018-Feb-11 19:29N 35°31' E 139°45'0 0.0
2018-Feb-11 18:59N 35°31' E 139°45'0 0.0
2018-Feb-11 17:29N 35°31' E 139°45'0 0.0
2018-Feb-11 16:47N 35°31' E 139°45'0 0.0
2018-Feb-11 16:23N 35°31' E 139°45'0 0.0
2018-Feb-11 15:59N 35°31' E 139°45'0 0.0
2018-Feb-11 15:29N 35°31' E 139°45'0 0.0
2018-Feb-11 14:53N 35°31' E 139°45'0 0.0
2018-Feb-11 14:29N 35°31' E 139°45'0 0.0
2018-Feb-11 13:59N 35°31' E 139°45'0 0.0
2018-Feb-11 13:29N 35°31' E 139°45'0 0.0
2018-Feb-11 12:59N 35°31' E 139°45'0 0.0
2018-Feb-11 12:29N 35°31' E 139°45'0 0.0
2018-Feb-11 11:29N 35°31' E 139°45'0 0.0
2018-Feb-11 10:47N 35°31' E 139°45'0 0.0
2018-Feb-11 10:23N 35°31' E 139°45'0 0.0
2018-Feb-11 09:59N 35°31' E 139°45'0 0.0
2018-Feb-11 09:23N 35°31' E 139°45'0 0.0
2018-Feb-11 08:59N 35°31' E 139°45'0 0.0
2018-Feb-11 08:29N 35°31' E 139°45'2 4.3
2018-Feb-11 08:00N 35°29' E 139°43'4 8.7
2018-Feb-11 07:30N 35°25' E 139°42'3 6.4
2018-Feb-11 07:00N 35°24' E 139°38'0 0.1
2018-Feb-11 06:28N 35°24' E 139°38'0 0.0
2018-Feb-11 05:56N 35°24' E 139°38'0 0.0
2018-Feb-11 05:28N 35°24' E 139°38'0 0.0
2018-Feb-11 04:55N 35°24' E 139°38'0 0.0
2018-Feb-11 04:25N 35°24' E 139°38'2 5.0
2018-Feb-11 03:59N 35°24' E 139°41'510.8
2018-Feb-11 03:30N 35°28' E 139°45'  

Dump ship's entire track history